Time;durP1;ratioP1;P1;durP2;ratioP2;P2;SDS_P1;SDS_P2;PMS_P1;PMS_P2;Temp;Humidity;BMP_temperature;BMP_pressure;BME280_temperature;BME280_humidity;BME280_pressure;Samples;Min_cycle;Max_cycle;Signal;HPM_P1;HPM_P2
2022/02/08 00:00:19;;;;;;;8.95;6.90;;;;;;;2.14;63.27;93900.52;1518813;92;21144;-47
2022/02/08 00:02:51;;;;;;;8.03;6.10;;;;;;;2.11;62.86;93900.74;1532864;92;21037;-48
2022/02/08 00:05:17;;;;;;;15.50;7.30;;;;;;;2.12;63.17;93908.30;1530210;92;21034;-48
2022/02/08 00:07:49;;;;;;;6.53;4.85;;;;;;;2.08;62.38;93914.36;1528896;92;21081;-47
2022/02/08 00:10:14;;;;;;;14.23;11.28;;;;;;;2.06;62.20;93918.08;1513212;92;21211;-48
2022/02/08 00:12:41;;;;;;;11.12;8.95;;;;;;;1.97;61.75;93917.85;1504794;93;21149;-48
2022/02/08 00:15:09;;;;;;;7.85;7.03;;;;;;;1.95;61.71;93921.57;1518039;92;21180;-47
2022/02/08 00:17:36;;;;;;;9.40;6.30;;;;;;;2.00;61.46;93929.23;1547052;90;21123;-48
2022/02/08 00:20:06;;;;;;;6.42;5.00;;;;;;;2.07;61.21;93931.23;1516035;92;21086;-47
2022/02/08 00:22:35;;;;;;;7.40;6.62;;;;;;;2.02;60.23;93928.22;1515950;93;21029;-46
2022/02/08 00:25:03;;;;;;;8.90;6.10;;;;;;;1.94;60.89;93929.53;1517782;93;21133;-47
2022/02/08 00:27:30;;;;;;;6.78;5.55;;;;;;;1.82;60.92;93930.88;1516236;92;21646;-47
2022/02/08 00:29:57;;;;;;;6.95;5.95;;;;;;;1.75;61.47;93936.39;1547505;90;21097;-47
2022/02/08 00:32:23;;;;;;;6.28;5.37;;;;;;;1.73;60.54;93929.84;1543488;91;21101;-48
2022/02/08 00:34:50;;;;;;;6.17;5.45;;;;;;;1.75;60.61;93928.86;1516654;93;21295;-47
2022/02/08 00:37:16;;;;;;;6.62;5.95;;;;;;;1.79;60.70;93934.99;1529428;92;21192;-47
2022/02/08 00:39:43;;;;;;;10.35;5.60;;;;;;;1.82;61.03;93936.88;1515886;93;21255;-46
2022/02/08 00:42:11;;;;;;;8.05;5.60;;;;;;;1.82;60.99;93942.30;1511511;93;21238;-47
2022/02/08 00:44:50;;;;;;;8.33;6.22;;;;;;;1.81;60.96;93939.41;1546398;91;21152;-47
2022/02/08 00:47:17;;;;;;;6.53;5.20;;;;;;;1.84;61.36;93944.01;1512720;93;21219;-47
2022/02/08 00:49:41;;;;;;;5.67;5.10;;;;;;;1.91;61.07;93948.73;1516742;93;21580;-46
2022/02/08 00:52:14;;;;;;;6.08;5.45;;;;;;;1.92;60.46;93951.63;1501710;93;21119;-46
2022/02/08 00:54:36;;;;;;;9.13;6.17;;;;;;;1.95;60.67;93954.11;1517521;92;21517;-47
2022/02/08 00:57:04;;;;;;;7.53;5.42;;;;;;;1.95;61.09;93954.86;1508480;93;21064;-47
2022/02/08 00:59:30;;;;;;;5.40;4.90;;;;;;;2.06;60.67;93960.12;1519518;92;21267;-47
2022/02/08 01:01:57;;;;;;;5.90;4.80;;;;;;;2.09;60.58;93966.06;1547330;90;21093;-48
2022/02/08 01:04:25;;;;;;;8.68;7.03;;;;;;;2.10;60.92;93968.98;1519973;92;21053;-46
2022/02/08 01:06:54;;;;;;;6.22;5.55;;;;;;;2.15;60.71;93978.75;1541173;92;21060;-47
2022/02/08 01:09:31;;;;;;;8.00;6.65;;;;;;;2.22;61.29;93974.59;1518986;92;21645;-47
2022/02/08 01:11:53;;;;;;;13.10;11.80;;;;;;;2.26;60.99;93968.51;1509843;92;22032;-48
2022/02/08 01:14:19;;;;;;;6.00;5.45;;;;;;;2.24;61.42;93972.23;1534034;92;21060;-48
2022/02/08 01:16:46;;;;;;;5.90;5.28;;;;;;;2.20;61.21;93971.52;1528571;92;21048;-47
2022/02/08 01:19:14;;;;;;;6.67;5.50;;;;;;;2.18;62.01;93979.28;1529688;92;21099;-47
2022/02/08 01:21:41;;;;;;;8.20;7.40;;;;;;;2.08;62.35;93984.30;1550913;90;21103;-47
2022/02/08 01:24:08;;;;;;;7.67;6.87;;;;;;;2.04;62.55;93984.95;1529786;92;21114;-46
2022/02/08 01:26:44;;;;;;;9.45;6.83;;;;;;;2.12;62.93;93986.97;1513760;92;20984;-47
2022/02/08 01:29:20;;;;;;;10.10;7.53;;;;;;;2.18;63.46;93994.81;1530565;91;21080;-47
2022/02/08 01:31:38;;;;;;;14.60;8.03;;;;;;;2.29;63.63;94000.84;1526904;92;21035;-47
2022/02/08 01:34:26;;;;;;;13.25;8.60;;;;;;;2.42;63.76;94012.05;1513177;92;21052;-47
2022/02/08 01:39:20;;;;;;;9.35;6.45;;;;;;;2.41;64.14;94019.23;1530376;92;21238;-47
2022/02/08 01:47:17;;;;;;;10.43;8.50;;;;;;;2.28;65.73;94034.55;1530327;92;20975;-47
2022/02/08 01:49:57;;;;;;;9.25;6.97;;;;;;;2.26;65.21;94030.12;1531865;91;21298;-46
2022/02/08 01:52:07;;;;;;;11.63;7.33;;;;;;;2.13;64.61;94045.47;1531949;91;21141;-47
2022/02/08 01:54:34;;;;;;;7.75;6.00;;;;;;;2.00;65.54;94036.35;1532780;92;21561;-47
2022/02/08 01:57:01;;;;;;;6.90;6.10;;;;;;;2.09;64.54;94043.38;1530125;92;21107;-47
2022/02/08 01:59:29;;;;;;;10.60;7.12;;;;;;;2.06;64.19;94033.34;1527864;92;21146;-47
2022/02/08 02:01:56;;;;;;;9.98;7.37;;;;;;;2.04;64.20;94036.48;1527825;92;21188;-47
2022/02/08 02:04:23;;;;;;;11.20;7.58;;;;;;;2.04;64.32;94045.20;1551741;90;21490;-47
2022/02/08 02:06:50;;;;;;;12.88;7.33;;;;;;;2.01;64.48;94043.31;1529221;92;20994;-47
2022/02/08 02:09:18;;;;;;;12.00;7.67;;;;;;;1.97;64.60;94050.73;1530461;91;21546;-47
2022/02/08 02:11:45;;;;;;;9.43;6.85;;;;;;;1.92;65.11;94056.63;1530107;92;21030;-47
2022/02/08 02:14:12;;;;;;;9.25;6.95;;;;;;;1.87;65.49;94055.13;1529743;92;21192;-47
2022/02/08 02:19:06;;;;;;;39.60;20.68;;;;;;;1.93;65.31;94066.30;1512667;93;21117;-47
2022/02/08 02:21:34;;;;;;;28.05;13.90;;;;;;;1.93;64.75;94074.43;1504089;93;21726;-47
2022/02/08 02:24:01;;;;;;;12.85;8.18;;;;;;;2.01;63.91;94067.72;1503767;94;21156;-48
2022/02/08 02:26:28;;;;;;;21.77;12.65;;;;;;;2.09;63.64;94070.50;1503575;94;21199;-47
2022/02/08 02:28:54;;;;;;;19.60;11.18;;;;;;;2.15;64.01;94078.37;1503083;94;21089;-48
2022/02/08 02:31:22;;;;;;;11.30;7.25;;;;;;;2.24;64.84;94075.91;1503622;93;21222;-47
2022/02/08 02:33:50;;;;;;;13.13;8.18;;;;;;;2.30;65.47;94075.64;1503666;94;21550;-47
2022/02/08 02:36:17;;;;;;;9.80;7.80;;;;;;;2.29;65.85;94089.03;1526049;93;21188;-47
2022/02/08 02:38:45;;;;;;;12.28;7.80;;;;;;;2.30;66.51;94088.59;1529038;91;20979;-48
2022/02/08 02:41:16;;;;;;;31.42;16.30;;;;;;;2.34;66.36;94087.20;1529957;92;21075;-48
2022/02/08 02:43:45;;;;;;;20.23;11.22;;;;;;;2.38;65.87;94086.55;1531264;92;21357;-48
2022/02/08 02:46:13;;;;;;;10.82;7.80;;;;;;;2.35;65.81;94088.73;1510798;92;21131;-48
2022/02/08 02:48:40;;;;;;;19.98;10.05;;;;;;;2.23;66.12;94101.50;1550696;91;21686;-47
2022/02/08 02:51:13;;;;;;;9.08;7.30;;;;;;;2.12;66.23;94103.61;1508284;93;21262;-47
2022/02/08 02:53:41;;;;;;;9.03;7.08;;;;;;;2.11;66.65;94103.44;1516657;92;21125;-47
2022/02/08 02:56:12;;;;;;;12.10;6.97;;;;;;;2.14;66.90;94102.61;1519149;91;21698;-46
2022/02/08 02:58:40;;;;;;;10.32;6.80;;;;;;;2.20;66.94;94101.75;1542102;92;21181;-48
2022/02/08 03:20:01;;;;;;;17.32;10.00;;;;;;;2.37;66.55;94135.22;1529666;92;21227;-48
2022/02/08 03:22:29;;;;;;;13.32;8.88;;;;;;;2.25;65.68;94133.05;1554370;90;21157;-48
2022/02/08 03:24:56;;;;;;;11.12;6.95;;;;;;;2.13;65.52;94142.52;1527948;92;21128;-47
2022/02/08 03:27:24;;;;;;;7.62;6.65;;;;;;;1.95;66.04;94146.66;1529752;92;21026;-50
2022/02/08 03:29:51;;;;;;;9.40;6.10;;;;;;;1.80;66.73;94140.61;1512686;92;21145;-48
2022/02/08 03:32:19;;;;;;;8.38;5.90;;;;;;;1.74;67.31;94147.67;1528644;92;21080;-48
2022/02/08 03:34:47;;;;;;;13.48;8.98;;;;;;;1.68;67.93;94139.03;1513183;92;21079;-49
2022/02/08 03:37:14;;;;;;;8.53;6.67;;;;;;;1.58;68.72;94159.48;1511576;92;21474;-47
2022/02/08 03:39:44;;;;;;;7.95;6.67;;;;;;;1.54;69.11;94173.06;1512635;93;21122;-48
2022/02/08 03:42:18;;;;;;;11.15;8.60;;;;;;;1.45;69.43;94164.66;1524264;92;21391;-47
2022/02/08 03:44:46;;;;;;;8.50;7.10;;;;;;;1.35;69.92;94164.17;1529162;92;20999;-48
2022/02/08 03:47:14;;;;;;;8.63;7.75;;;;;;;1.35;70.30;94169.59;1529221;92;21148;-48
2022/02/08 03:49:41;;;;;;;8.73;6.90;;;;;;;1.33;70.76;94177.35;1528840;92;21046;-48
2022/02/08 03:52:09;;;;;;;9.15;7.03;;;;;;;1.41;70.99;94178.84;1527927;92;21056;-52
2022/02/08 03:54:37;;;;;;;14.98;8.10;;;;;;;1.37;70.86;94188.95;1529924;92;21381;-48
2022/02/08 03:57:08;;;;;;;9.08;7.15;;;;;;;1.29;71.15;94184.75;1529792;92;21238;-47
2022/02/08 03:59:35;;;;;;;8.38;7.00;;;;;;;1.26;71.58;94188.84;1522787;92;21089;-47
2022/02/08 04:02:27;;;;;;;9.35;7.53;;;;;;;1.26;71.76;94204.52;1530164;92;21054;-48
2022/02/08 04:04:50;;;;;;;7.12;6.35;;;;;;;1.28;71.81;94201.42;1531615;91;21077;-47
2022/02/08 04:07:18;;;;;;;7.35;6.37;;;;;;;1.28;71.90;94200.06;1512797;92;21850;-47
2022/02/08 04:09:38;;;;;;;12.03;7.00;;;;;;;1.32;71.81;94217.05;1528806;92;21175;-47
2022/02/08 04:12:14;;;;;;;8.95;6.97;;;;;;;1.32;71.79;94206.97;1527325;93;21168;-47
2022/02/08 04:14:46;;;;;;;11.68;7.65;;;;;;;1.34;71.76;94204.62;1529989;92;21056;-47
2022/02/08 04:17:19;;;;;;;37.45;19.57;;;;;;;1.33;71.75;94207.16;1550682;90;21080;-47
2022/02/08 04:19:50;;;;;;;82.78;36.68;;;;;;;1.36;71.61;94216.42;1524703;91;21980;-47
2022/02/08 04:33:26;;;;;;;30.77;17.57;;;;;;;1.59;70.61;94241.76;1516442;93;21250;-49
2022/02/08 04:38:31;;;;;;;23.90;13.60;;;;;;;1.73;69.90;94239.66;1551384;91;20986;-48
2022/02/08 04:40:57;;;;;;;19.40;13.00;;;;;;;1.74;69.91;94252.05;1516198;93;21045;-48
2022/02/08 04:48:40;;;;;;;83.80;38.35;;;;;;;1.90;69.27;94264.47;1507498;93;21049;-48
2022/02/08 04:51:09;;;;;;;53.83;29.65;;;;;;;2.04;68.85;94267.04;1510805;92;21076;-47
2022/02/08 04:53:33;;;;;;;72.67;38.60;;;;;;;2.17;68.31;94277.53;1531958;91;21513;-48
2022/02/08 04:56:07;;;;;;;35.38;21.23;;;;;;;2.18;67.55;94275.59;1529226;91;21174;-48
2022/02/08 04:58:41;;;;;;;27.45;17.62;;;;;;;2.09;67.11;94278.80;1491783;92;21198;-47
2022/02/08 05:01:27;;;;;;;31.35;18.62;;;;;;;1.98;67.25;94278.13;1528462;92;21516;-48
2022/02/08 05:44:07;;;;;;;11.22;9.45;;;;;;;2.26;57.45;94357.09;1529434;92;20999;-47
2022/02/08 05:46:48;;;;;;;22.37;16.90;;;;;;;2.17;57.36;94353.50;1532826;90;21163;-53
2022/02/08 05:49:04;;;;;;;19.42;15.35;;;;;;;2.11;58.50;94360.54;1527369;92;21607;-46
2022/02/08 05:51:55;;;;;;;25.52;17.55;;;;;;;2.09;58.72;94377.81;1508657;93;21203;-48
2022/02/08 05:53:58;;;;;;;20.55;16.65;;;;;;;2.08;59.07;94384.98;1520551;92;21040;-47
2022/02/08 05:56:25;;;;;;;17.20;15.25;;;;;;;2.06;58.75;94388.11;1550706;90;21010;-47
2022/02/08 05:58:51;;;;;;;13.43;11.38;;;;;;;2.08;57.91;94389.83;1530256;92;21120;-48
2022/02/08 06:01:18;;;;;;;14.73;12.60;;;;;;;2.07;58.60;94393.72;1528194;92;21040;-48
2022/02/08 06:03:52;;;;;;;9.05;8.10;;;;;;;2.03;57.14;94398.98;1544555;90;22017;-48
2022/02/08 06:06:22;;;;;;;18.90;11.80;;;;;;;2.02;56.76;94400.95;1527908;92;21076;-51
2022/02/08 06:08:49;;;;;;;16.97;15.10;;;;;;;2.08;57.23;94413.46;1529288;92;21123;-49
2022/02/08 06:11:16;;;;;;;19.25;14.70;;;;;;;2.18;57.49;94415.33;1513209;92;21490;-46
2022/02/08 06:13:43;;;;;;;10.20;9.10;;;;;;;2.26;56.98;94420.28;1530986;92;21035;-48
2022/02/08 06:16:16;;;;;;;13.70;10.88;;;;;;;2.29;56.68;94415.41;1543070;90;21194;-48
2022/02/08 06:18:39;;;;;;;27.77;17.02;;;;;;;2.28;55.78;94422.58;1512933;92;21127;-48
2022/02/08 06:21:06;;;;;;;55.52;32.63;;;;;;;2.19;56.36;94427.72;1544184;90;21006;-49
2022/02/08 06:23:32;;;;;;;18.70;11.55;;;;;;;2.07;56.73;94414.06;1529302;92;21222;-49
2022/02/08 06:25:59;;;;;;;35.43;19.82;;;;;;;2.00;57.20;94405.97;1511450;93;21170;-48
2022/02/08 06:28:26;;;;;;;60.83;32.25;;;;;;;2.06;57.70;94414.45;1518411;92;21127;-50
2022/02/08 06:30:55;;;;;;;62.27;35.20;;;;;;;2.23;57.82;94421.67;1529102;92;21096;-51
2022/02/08 06:33:23;;;;;;;24.98;15.80;;;;;;;2.33;57.53;94426.23;1552725;92;21027;-47
2022/02/08 06:35:50;;;;;;;83.97;45.38;;;;;;;2.45;57.36;94433.86;1518954;92;21578;-49
2022/02/08 06:38:18;;;;;;;39.10;23.00;;;;;;;2.57;58.05;94445.00;1524914;92;21801;-48
2022/02/08 06:40:49;;;;;;;32.63;19.40;;;;;;;2.59;57.94;94445.94;1527353;92;21151;-51
2022/02/08 06:43:14;;;;;;;31.12;20.80;;;;;;;2.62;57.57;94454.05;1523562;90;21179;-53
2022/02/08 06:45:41;;;;;;;25.55;17.17;;;;;;;2.66;57.22;94464.89;1531314;91;21115;-50
2022/02/08 06:48:10;;;;;;;15.28;10.38;;;;;;;2.62;57.47;94462.20;1543635;90;21231;-49
2022/02/08 06:50:37;;;;;;;25.62;16.50;;;;;;;2.62;57.52;94479.06;1537979;90;21213;-48
2022/02/08 06:53:04;;;;;;;19.00;9.60;;;;;;;2.58;57.19;94475.62;1540871;90;21181;-49
2022/02/08 06:55:32;;;;;;;17.07;10.98;;;;;;;2.61;57.35;94483.73;1521570;92;21308;-50
2022/02/08 06:58:07;;;;;;;16.10;9.38;;;;;;;2.59;57.11;94490.16;1523838;91;21164;-51
2022/02/08 07:00:42;;;;;;;17.25;12.70;;;;;;;2.54;57.19;94488.46;1497364;92;21073;-49
2022/02/08 07:03:13;;;;;;;22.37;13.18;;;;;;;2.52;57.64;94490.20;1527301;91;21737;-49
2022/02/08 07:05:41;;;;;;;23.80;14.35;;;;;;;2.52;57.90;94504.38;1528397;91;21194;-48
2022/02/08 07:08:10;;;;;;;30.48;16.52;;;;;;;2.59;58.32;94504.31;1518646;92;21139;-51
2022/02/08 07:10:37;;;;;;;34.88;21.60;;;;;;;2.59;58.55;94497.52;1515774;92;21041;-48
2022/02/08 07:13:06;;;;;;;39.55;21.07;;;;;;;2.58;59.09;94502.20;1517559;92;21611;-52
2022/02/08 07:15:32;;;;;;;33.45;21.37;;;;;;;2.62;59.13;94496.71;1529214;90;21117;-53
2022/02/08 07:18:02;;;;;;;23.92;13.70;;;;;;;2.58;59.17;94513.05;1521274;90;21121;-56
2022/02/08 07:20:31;;;;;;;24.12;15.25;;;;;;;2.50;59.09;94508.09;1531722;91;21147;-49
2022/02/08 07:23:00;;;;;;;27.62;15.15;;;;;;;2.45;59.61;94516.64;1526309;92;21186;-54
2022/02/08 07:25:27;;;;;;;20.65;12.30;;;;;;;2.50;59.94;94514.27;1519745;92;21134;-51
2022/02/08 07:27:55;;;;;;;29.40;16.93;;;;;;;2.40;60.48;94510.30;1508251;91;21123;-48
2022/02/08 07:30:22;;;;;;;19.87;13.13;;;;;;;2.23;61.45;94519.34;1506624;93;21186;-49
2022/02/08 07:32:53;;;;;;;22.65;12.47;;;;;;;2.19;62.03;94520.75;1525797;90;21123;-49
2022/02/08 07:36:06;;;;;;;15.35;11.15;;;;;;;2.12;62.44;94520.03;1528669;91;21079;-53
2022/02/08 07:38:03;;;;;;;16.35;10.58;;;;;;;2.02;62.80;94506.73;1520920;91;21164;-57
2022/02/08 07:43:04;;;;;;;16.27;10.72;;;;;;;2.08;63.04;94524.69;1519886;92;21139;-50
2022/02/08 07:45:34;;;;;;;23.50;14.18;;;;;;;2.24;62.77;94518.96;1497055;92;21056;-51
2022/02/08 07:48:00;;;;;;;22.87;11.78;;;;;;;2.42;62.44;94521.52;1531336;91;21179;-50
2022/02/08 07:50:28;;;;;;;21.55;12.82;;;;;;;2.50;61.74;94528.45;1520006;92;21639;-51
2022/02/08 07:52:55;;;;;;;21.00;14.23;;;;;;;2.46;61.31;94526.33;1500120;92;21281;-51
2022/02/08 07:55:22;;;;;;;129.60;100.53;;;;;;;2.37;61.34;94524.67;1530013;91;21406;-51
2022/02/08 07:57:49;;;;;;;42.62;31.62;;;;;;;2.38;61.53;94535.72;1538215;90;21252;-51
2022/02/08 08:00:17;;;;;;;27.95;18.12;;;;;;;2.45;61.46;94526.14;1519587;91;21100;-50
2022/02/08 08:02:44;;;;;;;33.48;25.27;;;;;;;2.47;61.17;94538.76;1533876;91;21043;-49
2022/02/08 08:05:12;;;;;;;49.50;33.67;;;;;;;2.40;61.30;94536.87;1512732;92;21108;-53
2022/02/08 08:07:41;;;;;;;28.38;21.48;;;;;;;2.41;61.13;94543.84;1527201;92;21061;-50
2022/02/08 08:10:11;;;;;;;23.83;18.27;;;;;;;2.41;61.32;94545.77;1526108;91;21060;-51
2022/02/08 08:12:46;;;;;;;15.32;12.60;;;;;;;2.43;61.37;94548.84;1530896;92;21157;-52
2022/02/08 08:15:24;;;;;;;17.65;10.65;;;;;;;2.29;61.73;94553.80;1511666;92;21191;-50
2022/02/08 08:17:57;;;;;;;31.48;23.67;;;;;;;2.18;62.24;94558.52;1529813;91;21078;-52
2022/02/08 08:20:23;;;;;;;14.90;10.03;;;;;;;2.15;62.94;94562.64;1533384;90;22133;-51
2022/02/08 08:22:52;;;;;;;15.98;8.50;;;;;;;2.21;63.08;94573.25;1543850;90;21289;-54
2022/02/08 08:25:19;;;;;;;15.63;8.95;;;;;;;2.21;63.66;94575.96;1537530;90;21263;-50
2022/02/08 08:27:46;;;;;;;17.05;11.18;;;;;;;2.20;64.04;94582.56;1534523;91;21657;-52
2022/02/08 08:30:13;;;;;;;15.55;9.73;;;;;;;2.23;64.18;94591.26;1517987;90;21159;-53
2022/02/08 08:32:42;;;;;;;20.62;12.63;;;;;;;2.33;64.37;94586.36;1530892;90;21132;-50
2022/02/08 08:35:10;;;;;;;19.57;12.30;;;;;;;2.45;64.38;94595.36;1535069;91;21119;-54
2022/02/08 08:37:42;;;;;;;19.50;11.73;;;;;;;2.52;64.02;94594.73;1536201;90;21107;-51
2022/02/08 08:40:17;;;;;;;21.82;12.65;;;;;;;2.58;63.87;94591.01;1538001;90;21150;-53
2022/02/08 08:42:47;;;;;;;18.82;10.68;;;;;;;2.65;63.67;94599.12;1513212;92;21115;-54
2022/02/08 08:52:58;;;;;;;16.17;10.25;;;;;;;2.73;63.03;94608.73;1540701;90;22245;-51
2022/02/08 08:55:25;;;;;;;21.42;12.93;;;;;;;2.64;62.62;94608.41;1534180;91;21092;-49
2022/02/08 08:57:52;;;;;;;21.10;11.85;;;;;;;2.52;63.01;94598.05;1536113;90;21143;-52
2022/02/08 09:00:19;;;;;;;21.42;13.20;;;;;;;2.54;63.21;94594.34;1536663;91;22198;-50
2022/02/08 09:02:46;;;;;;;17.75;10.85;;;;;;;2.62;63.25;94596.61;1534071;91;21054;-49
2022/02/08 09:05:14;;;;;;;16.93;9.58;;;;;;;2.77;62.68;94587.75;1539545;90;21636;-52
2022/02/08 09:07:43;;;;;;;11.65;7.85;;;;;;;2.88;61.83;94588.44;1534312;90;21828;-51
2022/02/08 09:10:13;;;;;;;20.97;12.45;;;;;;;3.01;61.49;94588.10;1542579;91;21166;-49
2022/02/08 09:13:02;;;;;;;16.07;9.75;;;;;;;3.26;60.90;94591.36;1537974;90;22011;-56
2022/02/08 09:21:22;;;;;;;16.60;9.35;;;;;;;3.67;58.89;94600.41;1535323;90;21147;-51
2022/02/08 09:23:55;;;;;;;16.20;9.28;;;;;;;3.57;58.95;94602.67;1541097;91;21131;-48
2022/02/08 09:26:30;;;;;;;20.32;9.98;;;;;;;3.47;59.04;94603.37;1539556;91;21207;-52
2022/02/08 09:28:51;;;;;;;13.03;8.63;;;;;;;3.39;59.06;94610.07;1531862;90;22034;-51
2022/02/08 09:31:14;;;;;;;15.70;8.65;;;;;;;3.36;59.05;94608.13;1522695;92;21065;-50
2022/02/08 09:33:38;;;;;;;20.45;12.40;;;;;;;3.38;58.94;94599.77;1533200;91;21070;-50
2022/02/08 09:36:05;;;;;;;19.40;11.95;;;;;;;3.39;59.09;94595.13;1523106;92;21811;-49
2022/02/08 09:38:34;;;;;;;17.30;10.63;;;;;;;3.43;58.38;94596.60;1523068;92;21111;-56
2022/02/08 09:41:02;;;;;;;14.83;8.78;;;;;;;3.49;58.59;94598.47;1539149;91;21155;-55
2022/02/08 09:43:30;;;;;;;16.85;9.55;;;;;;;3.62;57.90;94590.55;1539072;91;21116;-48
2022/02/08 09:46:01;;;;;;;15.70;9.60;;;;;;;3.80;56.86;94586.46;1539400;88;21174;-48
2022/02/08 09:48:44;;;;;;;13.87;8.97;;;;;;;3.84;56.56;94591.27;1521610;92;21877;-57
2022/02/08 09:51:13;;;;;;;21.97;14.00;;;;;;;3.82;56.12;94586.82;1499902;91;21253;-51
2022/02/08 09:53:42;;;;;;;16.25;8.83;;;;;;;3.85;56.45;94586.00;1530922;91;21298;-50
2022/02/08 09:56:13;;;;;;;26.15;14.30;;;;;;;3.87;55.70;94586.36;1509601;92;21226;-47
2022/02/08 09:58:41;;;;;;;17.70;11.53;;;;;;;3.84;55.70;94585.82;1514171;91;21054;-59
2022/02/08 10:01:12;;;;;;;22.98;12.28;;;;;;;3.92;55.55;94583.20;1535371;91;21195;-54
2022/02/08 10:03:58;;;;;;;29.18;13.88;;;;;;;3.90;55.50;94584.18;1539860;92;21529;-50
2022/02/08 10:06:28;;;;;;;20.88;13.70;;;;;;;3.84;55.33;94597.31;1539354;90;21089;-52
2022/02/08 10:09:00;;;;;;;29.60;26.45;;;;;;;3.76;55.38;94600.70;1539589;91;48376;-52
2022/02/08 10:11:39;;;;;;;28.90;24.25;;;;;;;3.74;55.27;94590.82;1538695;90;21585;-50
2022/02/08 10:22:40;;;;;;;23.35;14.50;;;;;;;3.98;56.16;94601.19;1536413;90;21893;-53
2022/02/08 10:38:54;;;;;;;16.87;9.50;;;;;;;3.88;57.52;94608.31;1527820;92;21127;-50
2022/02/08 10:41:21;;;;;;;15.15;9.35;;;;;;;3.78;58.55;94611.95;1535135;89;21147;-55
2022/02/08 10:44:06;;;;;;;17.35;10.08;;;;;;;3.63;59.38;94624.16;1533958;91;21262;-49
2022/02/08 10:46:36;;;;;;;13.60;8.63;;;;;;;3.61;59.79;94625.73;1501360;92;21133;-49
2022/02/08 10:49:10;;;;;;;14.80;9.25;;;;;;;3.62;59.84;94625.91;1500225;93;21119;-48
2022/02/08 10:51:52;;;;;;;15.80;10.28;;;;;;;3.64;60.12;94625.70;1476249;94;21146;-48
2022/02/08 10:54:26;;;;;;;25.40;14.98;;;;;;;3.65;59.96;94616.36;1527012;91;21139;-48
2022/02/08 10:56:50;;;;;;;19.23;12.10;;;;;;;3.71;60.04;94620.17;1509257;92;21055;-49
2022/02/08 11:01:53;;;;;;;17.37;8.43;;;;;;;3.85;59.67;94614.57;1530272;92;21210;-49
2022/02/08 11:04:32;;;;;;;10.90;7.30;;;;;;;3.89;59.59;94618.02;1516992;92;21111;-49
2022/02/08 11:07:06;;;;;;;12.95;7.55;;;;;;;3.91;59.56;94614.29;1518597;92;21211;-51
2022/02/08 11:12:09;;;;;;;13.08;7.85;;;;;;;3.99;59.36;94601.38;1551031;90;21170;-51
2022/02/08 11:14:58;;;;;;;15.03;9.23;;;;;;;4.09;59.24;94602.59;1531294;91;21165;-52
2022/02/08 11:22:41;;;;;;;;;;;;;;;;;;;;;
2022/02/08 11:25:11;;;;;;;15.40;10.30;;;;;;;4.43;58.80;94596.48;1524081;92;21176;-50
2022/02/08 11:27:38;;;;;;;15.88;9.48;;;;;;;4.48;58.49;94608.86;1527856;92;21207;-49
2022/02/08 11:30:15;;;;;;;20.23;10.55;;;;;;;4.45;58.55;94607.72;1517139;92;21138;-49
2022/02/08 11:51:51;;;;;;;;;;;;;;;4.76;57.17;94611.18;1544013;91;21055;-47
2022/02/08 12:02:51;;;;;;;15.32;10.90;;;;;;;4.59;57.99;94619.78;1527649;92;21200;-48
2022/02/08 12:06:06;;;;;;;14.50;9.35;;;;;;;4.46;58.35;94615.32;1522051;92;21129;-51
2022/02/08 12:07:37;;;;;;;12.33;8.88;;;;;;;4.39;58.87;94618.91;1517407;91;21141;-49
2022/02/08 12:10:28;;;;;;;13.08;9.48;;;;;;;4.36;58.89;94614.86;1528480;92;21214;-50
2022/02/08 12:32:29;;;;;;;20.45;11.85;;;;;;;5.00;58.91;94633.17;1543140;90;21138;-50
2022/02/08 12:35:58;;;;;;;;;;;;;;;5.22;57.14;94624.23;1530107;92;21065;-49
2022/02/08 12:48:53;;;;;;;11.53;6.95;;;;;;;4.96;53.44;94625.04;1522865;92;21117;-53
2022/02/08 12:54:20;;;;;;;35.30;17.07;;;;;;;4.84;53.91;94636.55;1527177;92;21976;-54
2022/02/08 12:59:35;;;;;;;17.80;9.68;;;;;;;4.94;54.29;94640.28;1514179;92;21078;-51
2022/02/08 13:02:14;;;;;;;17.30;10.65;;;;;;;4.94;54.10;94640.28;1520013;91;21060;-47
2022/02/08 13:06:14;;;;;;;17.27;9.53;;;;;;;4.82;54.23;94637.52;1529444;92;21113;-54
2022/02/08 14:05:56;;;;;;;9.70;7.58;;;;;;;7.71;46.97;94629.30;1520964;92;21105;-48
2022/02/08 14:08:08;;;;;;;12.73;9.65;;;;;;;7.19;47.66;94640.98;1529017;90;21109;-50
2022/02/08 14:10:27;;;;;;;16.97;10.72;;;;;;;6.79;48.24;94643.52;1529921;92;21436;-49
2022/02/08 14:15:47;;;;;;;19.77;12.10;;;;;;;6.56;49.23;94641.67;1527008;92;21087;-47
2022/02/08 14:18:37;;;;;;;39.27;20.65;;;;;;;7.27;48.70;94645.09;1528015;92;21068;-48
2022/02/08 14:25:59;;;;;;;31.30;18.65;;;;;;;9.20;44.98;94647.27;1527212;92;21096;-49
2022/02/08 14:31:27;;;;;;;38.00;24.00;;;;;;;8.73;45.21;94643.66;1524375;92;21081;-48
2022/02/08 14:33:54;;;;;;;36.73;20.72;;;;;;;8.29;45.98;94647.28;1508411;93;21278;-48
2022/02/08 14:36:19;;;;;;;33.88;21.02;;;;;;;7.87;46.65;94649.05;1521427;92;21596;-49
2022/02/08 14:57:51;;;;;;;36.60;25.08;;;;;;;5.88;51.54;94677.62;1510242;93;21125;-50
2022/02/08 15:06:11;;;;;;;41.63;20.37;;;;;;;5.19;52.69;94667.91;1534451;90;22317;-49
2022/02/08 15:08:28;;;;;;;33.30;17.80;;;;;;;4.85;53.36;94662.61;1507761;92;21050;-49
2022/02/08 15:10:56;;;;;;;54.05;29.37;;;;;;;4.67;54.19;94663.46;1522438;92;21966;-48
2022/02/08 15:13:26;;;;;;;42.73;22.37;;;;;;;4.58;55.11;94666.52;1524633;92;21151;-47
2022/02/08 15:16:06;;;;;;;38.90;21.97;;;;;;;4.52;55.14;94652.58;1528956;92;21506;-52
2022/02/08 15:18:31;;;;;;;28.87;21.68;;;;;;;4.39;55.36;94659.75;1502376;93;21673;-48
2022/02/08 15:20:58;;;;;;;30.62;19.73;;;;;;;4.23;55.30;94648.69;1526661;92;22754;-47
2022/02/08 15:23:27;;;;;;;31.68;21.07;;;;;;;4.16;55.44;94659.68;1517110;93;21124;-50
2022/02/08 15:25:56;;;;;;;45.70;27.90;;;;;;;4.10;55.62;94656.45;1532755;91;21111;-48
2022/02/08 15:28:24;;;;;;;70.17;37.15;;;;;;;4.03;56.02;94661.38;1495520;92;21100;-49
2022/02/08 15:30:53;;;;;;;87.33;47.60;;;;;;;3.91;56.37;94660.55;1519430;91;21044;-49
2022/02/08 15:33:20;;;;;;;42.43;25.17;;;;;;;3.83;56.56;94665.90;1518322;90;21161;-48
2022/02/08 15:35:46;;;;;;;50.73;29.70;;;;;;;3.74;56.92;94664.27;1521197;91;21128;-48
2022/02/08 15:38:13;;;;;;;40.90;26.23;;;;;;;3.67;57.21;94670.38;1520414;91;21033;-48
2022/02/08 15:40:39;;;;;;;45.23;30.40;;;;;;;3.57;57.49;94666.59;1519613;91;21184;-48
2022/02/08 15:43:08;;;;;;;100.55;62.58;;;;;;;3.50;57.89;94672.08;1502323;92;21082;-47
2022/02/08 15:45:50;;;;;;;112.62;68.10;;;;;;;3.41;58.43;94667.53;1527270;92;21731;-51
2022/02/08 15:48:14;;;;;;;81.15;53.35;;;;;;;3.32;58.97;94678.09;1521196;92;21050;-49
2022/02/08 16:11:47;;;;;;;100.18;52.33;;;;;;;2.68;61.02;94692.75;1473684;93;21763;-49
2022/02/08 16:14:57;;;;;;;114.88;57.90;;;;;;;2.60;60.92;94685.84;1507164;92;21093;-49
2022/02/08 16:27:22;;;;;;;89.67;48.13;;;;;;;2.23;61.69;94684.30;1536207;92;20171;-50
2022/02/08 16:32:59;;;;;;;183.90;86.45;;;;;;;2.13;61.89;94684.36;1547054;90;21635;-49
2022/02/08 16:46:19;;;;;;;274.98;135.82;;;;;;;1.95;62.87;94668.14;1527334;92;21060;-49
2022/02/08 16:59:22;;;;;;;101.75;53.95;;;;;;;1.72;63.02;94672.48;1529303;92;21178;-49
2022/02/08 17:01:45;;;;;;;102.65;52.88;;;;;;;1.64;62.72;94680.47;1528490;92;21066;-49
2022/02/08 17:04:11;;;;;;;92.17;49.88;;;;;;;1.50;62.75;94680.50;1527312;92;21153;-49
2022/02/08 17:06:38;;;;;;;88.58;45.05;;;;;;;1.41;62.99;94678.00;1511984;93;21108;-49
2022/02/08 17:09:10;;;;;;;91.55;44.03;;;;;;;1.36;63.08;94678.41;1526341;92;21658;-48
2022/02/08 17:16:53;;;;;;;115.57;59.70;;;;;;;1.04;64.03;94669.54;1525035;92;21264;-48
2022/02/08 17:44:58;;;;;;;209.03;104.87;;;;;;;1.36;64.59;94671.03;1526501;92;21182;-48
2022/02/08 17:48:23;;;;;;;137.55;72.80;;;;;;;1.57;64.43;94666.95;1527495;92;21589;-49
2022/02/08 17:50:49;;;;;;;127.17;73.80;;;;;;;1.62;64.35;94657.05;1519990;92;21109;-48
2022/02/08 17:53:17;;;;;;;121.55;67.08;;;;;;;1.64;64.38;94661.48;1526405;92;21103;-49
2022/02/08 17:55:43;;;;;;;123.18;67.72;;;;;;;1.70;64.06;94661.27;1529910;92;21798;-49
2022/02/08 17:58:10;;;;;;;104.70;57.33;;;;;;;1.74;63.95;94660.70;1526394;92;21125;-49
2022/02/08 18:00:37;;;;;;;109.60;58.20;;;;;;;1.84;63.95;94655.80;1520971;92;21506;-49
2022/02/08 18:03:04;;;;;;;133.47;67.47;;;;;;;1.94;63.91;94660.42;1528605;92;21104;-49